createdAt,value
2018-05-03T00:02:08.643Z,16.60
2018-05-03T00:04:37.091Z,16.60
2018-05-03T00:07:05.540Z,16.63
2018-05-03T00:09:34.673Z,16.64
2018-05-03T00:12:03.053Z,16.64
2018-05-03T00:14:31.484Z,16.65
2018-05-03T00:16:59.865Z,16.66
2018-05-03T00:19:28.245Z,16.62
2018-05-03T00:21:56.624Z,16.69
2018-05-03T00:24:25.068Z,16.75
2018-05-03T00:26:54.210Z,16.78
2018-05-03T00:29:22.593Z,16.82
2018-05-03T00:31:50.993Z,16.86
2018-05-03T00:34:19.408Z,16.90
2018-05-03T00:36:47.798Z,16.95
2018-05-03T00:39:16.522Z,17.01
2018-05-03T00:41:44.904Z,17.02
2018-05-03T00:44:13.280Z,16.99
2018-05-03T00:46:41.737Z,16.93
2018-05-03T00:49:10.119Z,16.80
2018-05-03T00:51:38.508Z,16.62
2018-05-03T00:54:06.345Z,16.60
2018-05-03T00:56:34.741Z,16.64
2018-05-03T00:59:03.117Z,16.66
2018-05-03T01:01:31.539Z,16.68
2018-05-03T01:03:59.930Z,16.75
2018-05-03T01:06:28.323Z,16.81
2018-05-03T01:08:56.714Z,16.89
2018-05-03T01:11:25.136Z,16.94
2018-05-03T01:13:53.554Z,16.99
2018-05-03T01:16:21.934Z,16.91
2018-05-03T01:18:50.319Z,16.95
2018-05-03T01:21:18.711Z,16.92
2018-05-03T01:23:47.098Z,16.96
2018-05-03T01:26:15.475Z,16.95
2018-05-03T01:28:44.540Z,16.68
2018-05-03T01:31:12.926Z,16.58
2018-05-03T01:33:41.617Z,16.57
2018-05-03T01:36:20.921Z,16.58
2018-05-03T01:38:49.329Z,16.49
2018-05-03T01:41:17.702Z,16.43
2018-05-03T01:43:46.080Z,16.45
2018-05-03T01:46:14.491Z,16.51
2018-05-03T01:48:42.888Z,16.55
2018-05-03T01:51:11.291Z,16.63
2018-05-03T01:53:39.666Z,16.65
2018-05-03T01:56:08.062Z,16.69
2018-05-03T01:58:36.454Z,16.72
2018-05-03T02:01:04.599Z,16.78
2018-05-03T02:03:32.981Z,16.79
2018-05-03T02:06:01.386Z,16.76
2018-05-03T02:08:29.800Z,16.73
2018-05-03T02:10:58.225Z,16.78
2018-05-03T02:13:26.632Z,16.74
2018-05-03T02:15:55.036Z,16.73
2018-05-03T02:18:23.452Z,16.68
2018-05-03T02:20:51.860Z,16.71
2018-05-03T02:23:20.242Z,16.68
2018-05-03T02:25:48.622Z,16.48
2018-05-03T02:28:17.002Z,16.36
2018-05-03T02:30:45.411Z,16.27
2018-05-03T02:33:13.798Z,16.25
2018-05-03T02:35:42.194Z,16.15
2018-05-03T02:38:11.232Z,16.06
2018-05-03T02:40:39.632Z,15.99
2018-05-03T02:43:08.047Z,15.92
2018-05-03T02:45:36.463Z,15.91
2018-05-03T02:48:04.874Z,15.85
2018-05-03T02:50:33.038Z,15.80
2018-05-03T02:53:01.465Z,15.83
2018-05-03T02:55:29.875Z,15.84
2018-05-03T02:58:14.901Z,15.81
2018-05-03T03:00:59.931Z,15.76
2018-05-03T03:03:44.849Z,15.70
2018-05-03T03:06:29.787Z,15.71
2018-05-03T03:12:39.302Z,15.60
2018-05-03T03:15:24.492Z,15.62
2018-05-03T03:18:09.338Z,15.58
2018-05-03T03:24:21.461Z,15.55
2018-05-03T03:27:06.302Z,15.52
2018-05-03T03:29:45.717Z,15.50
2018-05-03T03:32:25.307Z,15.54
2018-05-03T03:38:11.879Z,15.56
2018-05-03T03:40:51.371Z,15.58
2018-05-03T03:43:30.828Z,15.62
2018-05-03T03:45:59.238Z,15.65
2018-05-03T03:48:27.617Z,15.70
2018-05-03T03:50:56.018Z,15.72
2018-05-03T03:53:25.448Z,15.75
2018-05-03T03:55:53.878Z,15.74
2018-05-03T03:58:22.278Z,15.77
2018-05-03T04:00:50.657Z,15.75
2018-05-03T04:03:20.543Z,15.77
2018-05-03T04:05:48.956Z,15.77
2018-05-03T04:08:17.346Z,15.79
2018-05-03T04:10:45.783Z,15.82
2018-05-03T04:13:14.221Z,15.82
2018-05-03T04:15:42.625Z,15.80
2018-05-03T04:18:22.165Z,15.77
2018-05-03T04:21:04.604Z,15.79
2018-05-03T04:23:45.311Z,15.88
2018-05-03T04:26:13.685Z,15.89
2018-05-03T04:28:42.063Z,15.82
2018-05-03T04:31:10.448Z,15.71
2018-05-03T04:33:38.938Z,15.64
2018-05-03T04:36:07.430Z,15.80
2018-05-03T04:38:35.812Z,15.85
2018-05-03T04:41:04.202Z,15.92
2018-05-03T04:43:32.596Z,15.96
2018-05-03T04:46:00.994Z,16.00
2018-05-03T04:48:29.432Z,16.06
2018-05-03T04:50:57.816Z,16.12
2018-05-03T04:53:26.204Z,16.20
2018-05-03T04:55:54.582Z,16.31
2018-05-03T04:58:22.968Z,16.41
2018-05-03T05:00:51.369Z,16.47
2018-05-03T05:03:19.505Z,16.54
2018-05-03T05:05:47.923Z,16.62
2018-05-03T05:08:16.316Z,16.70
2018-05-03T05:10:44.710Z,16.75
2018-05-03T05:13:13.104Z,16.92
2018-05-03T05:15:41.498Z,17.03
2018-05-03T05:18:09.987Z,17.16
2018-05-03T05:20:38.376Z,17.25
2018-05-03T05:23:06.791Z,17.31
2018-05-03T05:25:35.213Z,17.33
2018-05-03T05:28:03.598Z,17.36
2018-05-03T05:30:31.972Z,17.37
2018-05-03T05:33:00.368Z,17.33
2018-05-03T05:35:28.771Z,17.46
2018-05-03T05:37:57.157Z,17.55
2018-05-03T05:40:25.538Z,17.49
2018-05-03T05:42:53.731Z,17.71
2018-05-03T05:45:22.113Z,17.79
2018-05-03T05:47:50.496Z,17.86
2018-05-03T05:50:18.879Z,17.84
2018-05-03T05:52:47.080Z,17.91
2018-05-03T05:55:15.456Z,18.03
2018-05-03T05:57:43.827Z,17.99
2018-05-03T06:00:12.197Z,18.11
2018-05-03T06:02:40.593Z,17.77
2018-05-03T06:05:10.016Z,18.18
2018-05-03T06:07:38.449Z,18.33
2018-05-03T06:10:09.261Z,18.30
2018-05-03T06:12:37.667Z,18.34
2018-05-03T06:15:08.662Z,18.35
2018-05-03T06:17:37.044Z,18.40
2018-05-03T06:20:07.072Z,18.46
2018-05-03T06:22:35.797Z,18.52
2018-05-03T06:25:04.522Z,18.64
2018-05-03T06:27:33.536Z,18.70
2018-05-03T06:30:01.925Z,18.65
2018-05-03T06:32:30.307Z,18.98
2018-05-03T06:34:58.724Z,19.03
2018-05-03T06:37:27.113Z,19.17
2018-05-03T06:39:55.500Z,19.26
2018-05-03T06:42:23.889Z,19.42
2018-05-03T06:44:52.288Z,19.65
2018-05-03T06:47:20.659Z,19.74
2018-05-03T06:49:49.072Z,19.86
2018-05-03T06:52:17.489Z,19.92
2018-05-03T06:54:45.877Z,19.98
2018-05-03T06:57:14.262Z,20.07
2018-05-03T06:59:42.640Z,20.03
2018-05-03T07:02:11.042Z,20.08
2018-05-03T07:04:39.425Z,20.13
2018-05-03T07:07:07.849Z,20.16
2018-05-03T07:09:36.249Z,20.24
2018-05-03T07:12:04.413Z,20.29
2018-05-03T07:14:32.772Z,20.48
2018-05-03T07:17:01.145Z,20.64
2018-05-03T07:19:29.532Z,20.61
2018-05-03T07:21:57.897Z,20.89
2018-05-03T07:24:27.290Z,21.10
2018-05-03T07:29:30.472Z,21.36
2018-05-03T07:31:58.980Z,21.43
2018-05-03T07:34:27.355Z,21.58
2018-05-03T07:36:55.735Z,21.61
2018-05-03T07:39:24.114Z,21.72
2018-05-03T07:41:52.481Z,21.79
2018-05-03T07:44:20.902Z,21.79
2018-05-03T07:46:49.288Z,21.85
2018-05-03T07:49:17.863Z,21.92
2018-05-03T07:51:46.249Z,22.00
2018-05-03T07:54:14.627Z,21.92
2018-05-03T07:56:43.023Z,21.90
2018-05-03T07:59:11.585Z,21.93
2018-05-03T08:01:40.011Z,21.85
2018-05-03T08:04:08.593Z,21.86
2018-05-03T08:06:36.658Z,21.86
2018-05-03T08:09:04.466Z,21.99
2018-05-03T08:11:32.514Z,21.94
2018-05-03T08:14:00.922Z,22.03
2018-05-03T08:16:29.358Z,22.06
2018-05-03T08:18:57.735Z,22.13
2018-05-03T08:21:25.866Z,22.21
2018-05-03T08:23:54.247Z,22.14
2018-05-03T08:26:22.629Z,22.05
2018-05-03T08:28:51.002Z,22.15
2018-05-03T08:31:19.430Z,22.26
2018-05-03T08:33:47.828Z,22.36
2018-05-03T08:36:16.223Z,22.46
2018-05-03T08:38:44.618Z,22.50
2018-05-03T08:41:12.993Z,22.64
2018-05-03T08:43:41.421Z,22.68
2018-05-03T08:46:09.817Z,22.62
2018-05-03T08:48:38.193Z,22.61
2018-05-03T08:51:06.570Z,22.64
2018-05-03T08:53:34.963Z,22.66
2018-05-03T08:56:03.339Z,22.72
2018-05-03T08:58:31.721Z,22.85
2018-05-03T09:00:59.887Z,22.98
2018-05-03T09:03:28.249Z,22.83
2018-05-03T09:05:56.641Z,22.82
2018-05-03T09:08:25.020Z,22.88
2018-05-03T09:10:53.389Z,23.47
2018-05-03T09:13:21.767Z,23.58
2018-05-03T09:15:50.144Z,23.68
2018-05-03T09:18:18.521Z,23.59
2018-05-03T09:20:46.912Z,23.52
2018-05-03T09:23:15.288Z,23.69
2018-05-03T09:25:43.654Z,23.96
2018-05-03T09:28:12.021Z,23.83
2018-05-03T09:30:40.402Z,23.58
2018-05-03T09:33:08.786Z,23.48
2018-05-03T09:35:37.213Z,23.46
2018-05-03T09:38:05.585Z,22.94
2018-05-03T09:40:33.949Z,22.97
2018-05-03T09:43:01.977Z,22.93
2018-05-03T09:45:30.430Z,23.04
2018-05-03T09:47:58.933Z,23.21
2018-05-03T09:50:27.300Z,23.47
2018-05-03T09:52:55.678Z,23.50
2018-05-03T09:55:24.042Z,23.43
2018-05-03T09:57:52.421Z,23.73
2018-05-03T10:00:21.046Z,23.83
2018-05-03T10:02:49.421Z,23.55
2018-05-03T10:05:17.791Z,23.70
2018-05-03T10:07:46.181Z,23.94
2018-05-03T10:10:14.555Z,23.96
2018-05-03T10:12:42.353Z,23.67
2018-05-03T10:15:10.704Z,23.47
2018-05-03T10:17:39.554Z,23.71
2018-05-03T10:20:07.737Z,23.34
2018-05-03T10:22:36.159Z,23.86
2018-05-03T10:25:04.589Z,23.87
2018-05-03T10:27:33.004Z,23.73
2018-05-03T10:30:01.471Z,23.90
2018-05-03T10:32:30.032Z,23.85
2018-05-03T10:34:58.413Z,24.16
2018-05-03T10:37:26.783Z,24.47
2018-05-03T10:39:55.148Z,24.55
2018-05-03T10:42:23.540Z,24.50
2018-05-03T10:44:51.984Z,24.85
2018-05-03T10:47:20.268Z,24.74
2018-05-03T10:49:48.644Z,24.61
2018-05-03T10:52:17.018Z,24.82
2018-05-03T10:54:45.400Z,24.97
2018-05-03T10:57:13.781Z,25.17
2018-05-03T10:59:42.190Z,25.01
2018-05-03T11:02:10.569Z,24.87
2018-05-03T11:04:41.289Z,24.99
2018-05-03T11:07:09.420Z,25.09
2018-05-03T11:09:37.798Z,25.21
2018-05-03T11:12:06.169Z,25.44
2018-05-03T11:14:34.548Z,25.63
2018-05-03T11:17:02.929Z,25.59
2018-05-03T11:19:31.330Z,25.67
2018-05-03T11:21:59.900Z,26.38
2018-05-03T11:24:28.282Z,26.64
2018-05-03T11:26:56.649Z,26.78
2018-05-03T11:29:25.090Z,26.61
2018-05-03T11:31:53.616Z,26.52
2018-05-03T11:34:21.994Z,26.69
2018-05-03T11:36:50.230Z,26.85
2018-05-03T11:39:18.758Z,26.73
2018-05-03T11:41:47.127Z,26.53
2018-05-03T11:44:15.604Z,26.36
2018-05-03T11:46:44.009Z,26.43
2018-05-03T11:49:12.377Z,26.54
2018-05-03T11:51:40.903Z,26.65
2018-05-03T11:54:09.287Z,26.95
2018-05-03T11:56:37.667Z,27.50
2018-05-03T11:59:06.140Z,27.93
2018-05-03T12:01:34.647Z,28.34
2018-05-03T12:04:03.055Z,28.42
2018-05-03T12:06:31.474Z,28.68
2018-05-03T12:08:59.866Z,28.82
2018-05-03T12:11:28.245Z,28.87
2018-05-03T12:13:56.633Z,29.03
2018-05-03T12:16:25.019Z,29.07
2018-05-03T12:18:53.434Z,29.08
2018-05-03T12:21:21.822Z,29.03
2018-05-03T12:23:50.737Z,29.09
2018-05-03T12:26:19.121Z,29.01
2018-05-03T12:28:47.518Z,28.96
2018-05-03T12:31:15.982Z,29.05
2018-05-03T12:33:44.360Z,29.05
2018-05-03T12:36:12.756Z,29.01
2018-05-03T12:38:41.143Z,28.65
2018-05-03T12:41:09.570Z,28.63
2018-05-03T12:43:37.949Z,28.60
2018-05-03T12:46:06.337Z,28.43
2018-05-03T12:48:35.223Z,28.64
2018-05-03T12:51:03.597Z,28.80
2018-05-03T12:53:32.028Z,28.91
2018-05-03T12:56:00.429Z,28.80
2018-05-03T12:58:28.840Z,28.87
2018-05-03T13:00:57.352Z,28.74
2018-05-03T13:03:25.766Z,28.68
2018-05-03T13:05:54.146Z,28.71
2018-05-03T13:08:22.583Z,28.33
2018-05-03T13:10:50.987Z,28.32
2018-05-03T13:13:19.383Z,28.47
2018-05-03T13:15:47.796Z,28.56
2018-05-03T13:18:16.166Z,28.71
2018-05-03T13:20:44.583Z,28.79
2018-05-03T13:23:13.012Z,28.93
2018-05-03T13:25:41.405Z,29.03
2018-05-03T13:28:09.786Z,29.00
2018-05-03T13:30:38.167Z,29.08
2018-05-03T13:33:06.549Z,28.93
2018-05-03T13:35:34.928Z,28.94
2018-05-03T13:38:03.513Z,28.95
2018-05-03T13:40:31.884Z,29.00
2018-05-03T13:43:00.257Z,28.98
2018-05-03T13:45:28.641Z,28.74
2018-05-03T13:47:57.020Z,28.70
2018-05-03T13:50:25.410Z,28.74
2018-05-03T13:52:53.785Z,28.76
2018-05-03T13:55:21.924Z,28.62
2018-05-03T13:57:50.309Z,28.49
2018-05-03T14:00:18.389Z,28.67
2018-05-03T14:02:46.775Z,28.73
2018-05-03T14:05:15.424Z,28.83
2018-05-03T14:07:43.835Z,28.86
2018-05-03T14:10:12.214Z,28.81
2018-05-03T14:12:40.750Z,28.78
2018-05-03T14:15:09.133Z,28.04
2018-05-03T14:17:37.535Z,28.73
2018-05-03T14:20:05.818Z,28.75
2018-05-03T14:22:34.252Z,28.72
2018-05-03T14:25:02.639Z,28.77
2018-05-03T14:27:31.041Z,28.82
2018-05-03T14:29:59.633Z,28.86
2018-05-03T14:32:28.028Z,28.89
2018-05-03T14:34:56.401Z,28.80
2018-05-03T14:37:24.790Z,28.83
2018-05-03T14:39:53.202Z,28.77
2018-05-03T14:42:21.602Z,28.73
2018-05-03T14:44:49.998Z,28.78
2018-05-03T14:47:18.436Z,28.74
2018-05-03T14:49:46.982Z,28.65
2018-05-03T14:52:15.362Z,28.67
2018-05-03T14:54:43.745Z,28.65
2018-05-03T14:57:12.121Z,28.54
2018-05-03T14:59:40.511Z,28.43
2018-05-03T15:02:08.876Z,28.42
2018-05-03T15:04:37.252Z,28.36
2018-05-03T15:07:05.649Z,28.34
2018-05-03T15:09:34.058Z,28.34
2018-05-03T15:12:02.476Z,28.26
2018-05-03T15:14:30.630Z,28.31
2018-05-03T15:16:59.028Z,28.28
2018-05-03T15:19:27.398Z,28.34
2018-05-03T15:21:56.521Z,28.28
2018-05-03T15:24:24.888Z,28.27
2018-05-03T15:26:53.290Z,28.23
2018-05-03T15:29:21.717Z,28.08
2018-05-03T15:31:50.127Z,28.08
2018-05-03T15:34:18.300Z,28.01
2018-05-03T15:36:47.500Z,27.93
2018-05-03T15:39:16.075Z,27.89
2018-05-03T15:41:45.246Z,27.94
2018-05-03T15:44:13.638Z,27.97
2018-05-03T15:46:42.016Z,28.04
2018-05-03T15:49:10.402Z,27.96
2018-05-03T15:51:38.782Z,27.89
2018-05-03T15:54:07.224Z,27.88
2018-05-03T15:56:35.626Z,27.83
2018-05-03T15:59:04.532Z,27.77
2018-05-03T16:01:33.017Z,27.63
2018-05-03T16:04:01.481Z,27.61
2018-05-03T16:06:29.873Z,27.57
2018-05-03T16:08:58.313Z,27.44
2018-05-03T16:11:26.684Z,27.34
2018-05-03T16:13:55.062Z,27.32
2018-05-03T16:16:23.436Z,27.25
2018-05-03T16:18:51.849Z,27.24
2018-05-03T16:21:20.242Z,27.19
2018-05-03T16:23:48.623Z,27.16
2018-05-03T16:26:20.513Z,27.17
2018-05-03T16:28:50.260Z,27.18
2018-05-03T16:31:18.427Z,27.20
2018-05-03T16:33:46.850Z,27.09
2018-05-03T16:36:15.249Z,27.21
2018-05-03T16:38:43.626Z,27.20
2018-05-03T16:41:12.027Z,27.18
2018-05-03T16:43:40.419Z,27.23
2018-05-03T16:46:08.828Z,27.16
2018-05-03T16:48:38.005Z,27.13
2018-05-03T16:51:06.169Z,27.11
2018-05-03T16:53:34.548Z,27.11
2018-05-03T16:56:02.938Z,27.14
2018-05-03T16:58:31.347Z,27.14
2018-05-03T17:01:00.373Z,27.17
2018-05-03T17:03:29.662Z,27.22
2018-05-03T17:05:58.078Z,27.21
2018-05-03T17:08:26.550Z,27.13
2018-05-03T17:10:54.954Z,27.21
2018-05-03T17:13:23.325Z,27.19
2018-05-03T17:15:51.786Z,27.23
2018-05-03T17:18:20.201Z,27.19
2018-05-03T17:20:48.605Z,27.21
2018-05-03T17:23:17.022Z,27.12
2018-05-03T17:25:45.403Z,27.06
2018-05-03T17:28:13.790Z,26.98
2018-05-03T17:30:42.227Z,26.99
2018-05-03T17:33:10.642Z,26.93
2018-05-03T17:35:39.038Z,26.88
2018-05-03T17:38:07.416Z,26.87
2018-05-03T17:40:37.118Z,26.86
2018-05-03T17:43:05.596Z,26.81
2018-05-03T17:45:33.974Z,26.78
2018-05-03T17:48:02.349Z,26.74
2018-05-03T17:50:31.979Z,26.63
2018-05-03T17:53:00.387Z,26.41
2018-05-03T17:55:29.409Z,26.20
2018-05-03T17:57:57.808Z,25.83
2018-05-03T18:00:26.224Z,25.65
2018-05-03T18:02:54.653Z,25.49
2018-05-03T18:05:23.036Z,25.15
2018-05-03T18:07:51.415Z,24.71
2018-05-03T18:10:19.537Z,24.30
2018-05-03T18:12:48.022Z,24.18
2018-05-03T18:15:16.422Z,23.91
2018-05-03T18:17:45.036Z,23.73
2018-05-03T18:20:13.501Z,23.59
2018-05-03T18:22:41.907Z,23.49
2018-05-03T18:25:10.390Z,22.83
2018-05-03T18:27:39.514Z,23.17
2018-05-03T18:30:07.987Z,23.15
2018-05-03T18:32:37.264Z,23.03
2018-05-03T18:35:05.959Z,22.98
2018-05-03T18:37:34.382Z,22.93
2018-05-03T18:40:02.781Z,22.75
2018-05-03T18:42:31.173Z,22.44
2018-05-03T18:44:59.545Z,22.46
2018-05-03T18:47:27.990Z,22.40
2018-05-03T18:49:56.451Z,22.30
2018-05-03T18:52:25.026Z,22.28
2018-05-03T18:54:53.210Z,22.27
2018-05-03T18:57:21.654Z,22.22
2018-05-03T18:59:50.051Z,22.16
2018-05-03T19:02:18.461Z,21.98
2018-05-03T19:04:46.876Z,22.07
2018-05-03T19:07:15.250Z,22.04
2018-05-03T19:09:43.632Z,21.96
2018-05-03T19:12:12.010Z,21.94
2018-05-03T19:14:40.432Z,21.91
2018-05-03T19:17:08.824Z,21.85
2018-05-03T19:19:37.211Z,21.78
2018-05-03T19:22:05.613Z,21.81
2018-05-03T19:24:33.989Z,21.85
2018-05-03T19:27:02.394Z,21.80
2018-05-03T19:29:30.788Z,21.68
2018-05-03T19:31:59.156Z,21.68
2018-05-03T19:34:28.040Z,21.60
2018-05-03T19:36:56.413Z,21.52
2018-05-03T19:39:24.900Z,21.50
2018-05-03T19:41:53.357Z,21.40
2018-05-03T19:44:21.790Z,21.33
2018-05-03T19:46:50.193Z,21.32
2018-05-03T19:49:21.422Z,21.29
2018-05-03T19:51:49.804Z,21.26
2018-05-03T19:54:18.958Z,21.21
2018-05-03T19:56:50.572Z,21.22
2018-05-03T19:59:18.963Z,21.22
2018-05-03T20:01:47.373Z,21.21
2018-05-03T20:04:15.763Z,21.20
2018-05-03T20:06:44.157Z,21.21
2018-05-03T20:09:12.553Z,21.08
2018-05-03T20:11:40.997Z,21.18
2018-05-03T20:14:09.394Z,21.15
2018-05-03T20:16:38.044Z,21.13
2018-05-03T20:19:06.617Z,21.08
2018-05-03T20:21:35.000Z,21.05
2018-05-03T20:24:03.407Z,21.02
2018-05-03T20:26:32.001Z,20.94
2018-05-03T20:29:01.465Z,20.87
2018-05-03T20:31:29.957Z,20.60
2018-05-03T20:33:58.387Z,20.82
2018-05-03T20:36:26.783Z,20.85
2018-05-03T20:38:55.192Z,20.86
2018-05-03T20:41:23.785Z,20.83
2018-05-03T20:43:52.162Z,20.82
2018-05-03T20:46:20.534Z,20.83
2018-05-03T20:48:48.913Z,20.84
2018-05-03T20:51:18.030Z,20.83
2018-05-03T20:53:46.407Z,20.79
2018-05-03T20:56:14.801Z,20.69
2018-05-03T20:58:43.201Z,20.66
2018-05-03T21:01:11.599Z,20.64
2018-05-03T21:03:40.105Z,20.63
2018-05-03T21:06:08.627Z,20.57
2018-05-03T21:08:37.001Z,20.62
2018-05-03T21:11:05.386Z,20.57
2018-05-03T21:13:33.550Z,20.53
2018-05-03T21:16:02.064Z,20.48
2018-05-03T21:18:30.469Z,20.45
2018-05-03T21:20:58.850Z,20.42
2018-05-03T21:23:27.554Z,20.44
2018-05-03T21:25:55.932Z,20.43
2018-05-03T21:28:25.828Z,20.39
2018-05-03T21:30:54.284Z,20.33
2018-05-03T21:33:22.678Z,20.21
2018-05-03T21:35:51.094Z,20.12
2018-05-03T21:38:19.681Z,20.03
2018-05-03T21:40:48.673Z,20.03
2018-05-03T21:43:17.116Z,19.94
2018-05-03T21:45:45.531Z,19.86
2018-05-03T21:48:14.050Z,19.90
2018-05-03T21:50:42.095Z,19.78
2018-05-03T21:53:10.496Z,19.76
2018-05-03T21:55:38.897Z,19.81
2018-05-03T21:58:07.276Z,19.72
2018-05-03T22:00:35.456Z,19.72
2018-05-03T22:03:03.959Z,19.66
2018-05-03T22:05:32.374Z,19.64
2018-05-03T22:08:00.768Z,19.47
2018-05-03T22:10:29.147Z,19.59
2018-05-03T22:12:57.546Z,19.54
2018-05-03T22:15:25.930Z,19.51
2018-05-03T22:17:54.648Z,19.43
2018-05-03T22:20:23.266Z,19.36
2018-05-03T22:22:52.286Z,19.26
2018-05-03T22:25:20.673Z,19.33
2018-05-03T22:27:49.287Z,19.37
2018-05-03T22:30:17.720Z,19.18
2018-05-03T22:32:46.111Z,19.28
2018-05-03T22:35:14.526Z,19.24
2018-05-03T22:37:42.909Z,19.16
2018-05-03T22:40:11.348Z,19.19
2018-05-03T22:42:39.768Z,19.17
2018-05-03T22:45:10.825Z,19.15
2018-05-03T22:47:39.252Z,19.09
2018-05-03T22:50:10.421Z,19.13
2018-05-03T22:52:38.789Z,19.04
2018-05-03T22:55:10.061Z,18.99
2018-05-03T22:57:38.437Z,18.98
2018-05-03T23:00:09.599Z,18.92
2018-05-03T23:02:37.986Z,18.88
2018-05-03T23:05:06.614Z,18.90
2018-05-03T23:07:35.105Z,18.82
2018-05-03T23:10:03.525Z,18.78
2018-05-03T23:12:31.940Z,18.78
2018-05-03T23:15:00.327Z,18.77
2018-05-03T23:17:28.708Z,18.64
2018-05-03T23:19:57.082Z,18.62
2018-05-03T23:22:24.902Z,18.56
2018-05-03T23:24:53.295Z,18.55
2018-05-03T23:27:21.707Z,18.57
2018-05-03T23:29:50.115Z,18.58
2018-05-03T23:32:19.742Z,18.54
2018-05-03T23:34:48.155Z,18.49
2018-05-03T23:37:16.541Z,18.23
2018-05-03T23:39:45.142Z,18.30
2018-05-03T23:42:13.605Z,18.09
2018-05-03T23:44:42.010Z,18.19
2018-05-03T23:47:10.406Z,18.20
2018-05-03T23:49:38.786Z,18.08
2018-05-03T23:52:07.171Z,18.08
2018-05-03T23:54:35.544Z,18.08
2018-05-03T23:57:04.037Z,18.04
2018-05-03T23:59:32.435Z,18.03
